Millinocket, ME

7:44 AM EDT on July 25, 2014 (GMT -0400)
Millinocket Municipal (KMLT) Elev 407 ft | 45.65 °N, 68.69 °W | Change Station

Current weather conditions updated 51 minutes ago

Clear
Clear
62 °F
Feels Like 62 °F
N
6
Wind Variable Wind from West

Today is forecast to be Warmer than yesterday.

Today
High -- | Low -- °F
--% Chance of Precip.
Yesterday
High -- | Low -- °F
Precip. -- in
5:10 AM 8:11 PM
Waning Crescent, 2% visible
Pressure 29.91 in
Visibility 10.0 miles
Clouds Clear
Dew Point 53 °F
Humidity 72%
Rainfall 0.00 in
Snow Depth Not available.
UV 1 out of 12
Pollen 1.70 out of 12
Ozone Good
PM2.5 Good
Flu Activity Not available.
METAR KMLT 251053Z AUTO 28005KT 10SM CLR 17/12 A2989 RMK AO2 SLP126 T01670117

More Conditions Fewer Conditions

Pressure 29.91 in
Visibility 10.0 miles
Clouds Clear
Dew Point 53 °F
Humidity 72%
Rainfall 0.00 in
Snow Depth Not available.
UV 1 out of 12
Pollen 1.70 out of 12
Ozone Good
PM2.5 Good
Flu Activity Not available.
METAR KMLT 251053Z AUTO 28005KT 10SM CLR 17/12 A2989 RMK AO2 SLP126 T01670117

More Conditions Fewer Conditions

10-Day Weather Forecast

Almanac

Astronomy

Jul. 25, 2014 Rise Set
Actual Time 5:10 AM EDT 8:11 PM EDT
Civil Twilight 4:34 AM EDT 8:46 PM EDT
Nautical Twilight 3:49 AM EDT 9:31 PM EDT
Astronomical Twilight 2:54 AM EDT 10:25 PM EDT
Moon 4:08 AM EDT 7:03 PM EDT
Length of Visible Light 16h 11m
Length of Day
15h 01m
Tomorrow will be 2m 12s shorter.
Waning Crescent, 2% of the Moon is Illuminated
Today
Waning Crescent
Jul 26
New
Aug 3
First Quarter
Aug 10
Full
Aug 17
Last Quarter

Today's Extremes

State Highs State Lows

Community

WunderPhotos

Upload Photos

1,737,291 photos uploaded!

Nearby

Air Quality

  Air Quality AQ Index Pollutant
Yesterday Good
OZONE
Yesterday Good
PM2.5
Current Good
PM2.5
Current Good
OZONE
Friday Good
OZONE
Friday Good
PM2.5
Saturday Good
OZONE
Saturday Good
PM2.5

Snow Depth

Station Depth Elevation
No new snow has been reported.

Earthquake Activity

City Distance Mag. Time & Date
No recent earthquake activity has been reported nearby.
Minimum magnitude displayed is 2.5.

Coastal Water Temperatures

Place Temperature
No Stations Reporting

Nearby Weather Stations

Station Location Temp. Dew Point Humidity Wind Precip. Elev Updated Type
APRSWXNET Millinocket ME , Millinocket, ME 59 °F 54 °F 83% NNW  at  7 mph 0.00 in / hr 475 ft 7:00 AM EDT MADIS

Show More Stations Show Fewer Stations